Time;durP1;ratioP1;P1;durP2;ratioP2;P2;SDS_P1;SDS_P2;PMS_P1;PMS_P2;Temp;Humidity;BMP_temperature;BMP_pressure;BME280_temperature;BME280_humidity;BME280_pressure;Samples;Min_cycle;Max_cycle;Signal;HPM_P1;HPM_P2
2023/05/31 00:02:12;;;;;;;13.85;4.38;;;;;;;;;;5033973;28;20464;-68
2023/05/31 00:04:38;;;;;;;6.70;4.03;;;;;;;;;;5033409;28;20111;-68
2023/05/31 00:07:05;;;;;;;7.10;3.53;;;11.40;99.90;;;;;;5051652;28;20037;-68
2023/05/31 00:09:31;;;;;;;9.65;4.10;;;11.70;99.90;;;;;;5051502;28;20040;-68
2023/05/31 00:11:57;;;;;;;8.30;3.80;;;;;;;;;;5051529;28;20049;-68
2023/05/31 00:14:23;;;;;;;8.45;4.43;;;11.60;99.90;;;;;;5033333;28;20056;-68
2023/05/31 00:16:49;;;;;;;10.25;4.03;;;11.50;99.90;;;;;;5033627;28;20515;-68
2023/05/31 00:19:15;;;;;;;7.25;3.58;;;;;;;;;;5033577;28;20094;-69
2023/05/31 00:21:41;;;;;;;9.68;4.13;;;;;;;;;;5052988;28;20072;-69
2023/05/31 00:24:06;;;;;;;9.18;3.88;;;11.50;99.90;;;;;;5057556;28;20041;-68
2023/05/31 00:26:32;;;;;;;7.30;3.58;;;11.40;99.90;;;;;;5057888;28;20037;-68
2023/05/31 00:28:58;;;;;;;8.55;4.25;;;11.50;99.90;;;;;;5057921;28;20420;-68
2023/05/31 00:31:23;;;;;;;9.73;4.28;;;;;;;;;;5040116;28;20086;-68
2023/05/31 00:33:49;;;;;;;5.55;3.53;;;;;;;;;;5039504;28;20135;-69
2023/05/31 00:36:15;;;;;;;9.80;3.67;;;;;;;;;;5040323;28;20045;-69
2023/05/31 00:38:41;;;;;;;8.63;3.63;;;11.30;99.90;;;;;;5039822;28;20155;-68
2023/05/31 00:41:09;;;;;;;13.90;4.30;;;11.50;99.90;;;;;;5040356;28;20062;-68
2023/05/31 00:43:35;;;;;;;9.95;3.97;;;11.40;99.90;;;;;;5039334;28;20095;-68
2023/05/31 00:46:01;;;;;;;10.70;3.63;;;11.10;99.90;;;;;;5040261;28;20045;-68
2023/05/31 00:48:26;;;;;;;10.32;3.70;;;11.30;99.90;;;;;;5057677;28;20171;-68
2023/05/31 00:50:52;;;;;;;8.98;3.47;;;11.10;99.90;;;;;;5040036;28;20127;-69
2023/05/31 00:53:19;;;;;;;8.43;3.67;;;11.10;99.90;;;;;;5039383;28;20044;-68
2023/05/31 00:55:45;;;;;;;9.45;3.83;;;11.20;99.90;;;;;;5039912;28;20055;-68
2023/05/31 00:58:11;;;;;;;7.63;3.38;;;11.10;99.90;;;;;;5057724;28;20419;-68
2023/05/31 01:00:37;;;;;;;9.52;4.88;;;;;;;;;;5040176;28;20040;-69
2023/05/31 01:03:03;;;;;;;6.80;3.83;;;;;;;;;;5056951;28;20123;-68
2023/05/31 01:05:29;;;;;;;7.10;3.80;;;11.20;99.90;;;;;;5039844;28;20124;-68
2023/05/31 01:07:55;;;;;;;9.75;4.22;;;;;;;;;;5039631;28;20143;-69
2023/05/31 01:10:21;;;;;;;9.57;3.70;;;;;;;;;;5039851;28;20064;-69
2023/05/31 01:13:07;;;;;;;7.97;3.47;;;11.00;99.90;;;;;;5039816;28;20087;-69
2023/05/31 01:15:38;;;;;;;10.40;4.22;;;11.10;99.90;;;;;;5057961;28;20040;-68
2023/05/31 01:18:19;;;;;;;8.52;4.32;;;11.20;99.90;;;;;;5057529;28;20041;-68
2023/05/31 01:20:49;;;;;;;12.93;4.65;;;11.00;99.90;;;;;;5040060;28;20037;-68
2023/05/31 01:23:36;;;;;;;9.70;4.20;;;11.10;99.90;;;;;;5039214;28;20040;-68
2023/05/31 01:26:12;;;;;;;12.82;4.93;;;11.00;99.90;;;;;;5039858;28;20116;-68
2023/05/31 01:28:41;;;;;;;8.50;4.25;;;11.10;99.90;;;;;;5039356;28;20076;-68
2023/05/31 01:31:09;;;;;;;8.20;4.15;;;11.00;99.90;;;;;;5039494;28;20045;-68
2023/05/31 01:33:35;;;;;;;8.95;4.40;;;10.90;99.90;;;;;;5037512;28;20120;-69
2023/05/31 01:36:03;;;;;;;9.75;5.03;;;11.10;99.90;;;;;;5037104;28;20077;-68
2023/05/31 01:38:29;;;;;;;9.80;4.97;;;;;;;;;;5054912;28;20045;-69
2023/05/31 01:40:56;;;;;;;13.25;5.25;;;10.80;99.90;;;;;;5054209;28;20052;-69
2023/05/31 01:43:23;;;;;;;13.35;5.43;;;10.90;99.90;;;;;;5053651;28;20500;-68
2023/05/31 01:45:51;;;;;;;8.32;4.57;;;10.90;99.90;;;;;;5036398;28;20064;-68
2023/05/31 01:48:17;;;;;;;12.20;4.55;;;11.00;99.90;;;;;;5035874;28;20048;-68
2023/05/31 01:50:44;;;;;;;9.75;4.75;;;10.90;99.90;;;;;;5036389;28;20646;-68
2023/05/31 01:53:10;;;;;;;9.18;4.60;;;10.80;99.90;;;;;;5035650;28;20041;-68
2023/05/31 01:55:36;;;;;;;10.45;4.72;;;10.80;99.90;;;;;;5036019;28;20048;-68
2023/05/31 01:58:02;;;;;;;9.77;5.03;;;;;;;;;;5053748;28;20045;-68
2023/05/31 02:00:30;;;;;;;9.73;5.25;;;10.80;99.90;;;;;;5036274;28;20489;-69
2023/05/31 02:02:56;;;;;;;9.82;4.93;;;;;;;;;;5018798;28;20178;-69
2023/05/31 02:05:22;;;;;;;10.48;5.40;;;;;;;;;;5035839;28;20488;-69
2023/05/31 02:07:48;;;;;;;12.02;5.53;;;10.80;99.90;;;;;;5053768;28;20404;-69
2023/05/31 02:10:14;;;;;;;10.75;5.00;;;;;;;;;;5053789;28;20036;-69
2023/05/31 02:12:40;;;;;;;10.15;5.18;;;;;;;;;;5035903;28;20400;-69
2023/05/31 02:15:13;;;;;;;9.27;5.28;;;;;;;;;;5035275;28;20051;-69
2023/05/31 02:17:42;;;;;;;15.00;5.47;;;10.80;99.90;;;;;;5035467;28;20045;-68
2023/05/31 02:20:13;;;;;;;12.70;4.82;;;10.70;99.90;;;;;;5036000;28;20045;-68
2023/05/31 02:22:42;;;;;;;14.63;5.18;;;10.60;99.90;;;;;;5035697;28;20490;-69
2023/05/31 02:25:10;;;;;;;11.55;5.93;;;10.60;99.90;;;;;;5035106;28;20033;-68
2023/05/31 02:27:36;;;;;;;11.38;5.15;;;10.60;99.90;;;;;;5035341;28;20052;-68
2023/05/31 02:30:04;;;;;;;13.43;5.32;;;10.60;99.90;;;;;;5053248;28;20037;-68
2023/05/31 02:32:31;;;;;;;11.15;5.50;;;10.70;99.90;;;;;;5035191;28;20039;-68
2023/05/31 02:34:56;;;;;;;16.48;6.35;;;10.50;99.90;;;;;;5052785;28;20389;-68
2023/05/31 02:37:22;;;;;;;17.67;6.20;;;10.40;99.90;;;;;;5035240;28;20040;-69
2023/05/31 02:39:48;;;;;;;14.43;6.45;;;10.60;99.90;;;;;;5035124;28;20045;-68
2023/05/31 02:42:14;;;;;;;13.02;6.32;;;10.50;99.90;;;;;;5018292;28;20040;-68
2023/05/31 02:44:40;;;;;;;10.80;5.88;;;10.50;99.90;;;;;;5052756;28;20041;-68
2023/05/31 02:47:06;;;;;;;10.95;5.72;;;;;;;;;;5035024;28;20481;-68
2023/05/31 02:49:32;;;;;;;14.02;6.30;;;;;;;;;;5052948;28;20477;-68
2023/05/31 02:51:58;;;;;;;13.32;6.35;;;;;;;;;;5052940;28;20079;-68
2023/05/31 02:54:24;;;;;;;14.82;6.78;;;;;;;;;;5034785;28;20076;-68
2023/05/31 02:56:50;;;;;;;11.32;6.57;;;10.40;99.90;;;;;;5034862;28;20095;-68
2023/05/31 02:59:15;;;;;;;17.10;6.80;;;10.30;99.90;;;;;;5034964;28;20053;-68
2023/05/31 03:01:41;;;;;;;12.85;6.65;;;10.40;99.90;;;;;;5034944;28;20037;-68
2023/05/31 03:04:07;;;;;;;12.63;6.90;;;;;;;;;;5052297;28;20037;-68
2023/05/31 03:06:33;;;;;;;15.75;6.30;;;;;;;;;;5034540;28;20565;-69
2023/05/31 03:08:59;;;;;;;11.95;6.45;;;10.30;99.90;;;;;;5034787;28;20174;-68
2023/05/31 03:11:25;;;;;;;12.00;6.68;;;;;;;;;;5035495;28;20053;-69
2023/05/31 03:13:52;;;;;;;16.33;7.22;;;;;;;;;;5034523;28;20040;-68
2023/05/31 03:16:20;;;;;;;19.52;7.32;;;10.20;99.90;;;;;;5053582;28;20044;-68
2023/05/31 03:18:46;;;;;;;16.60;6.63;;;;;;;;;;5034282;28;20041;-68
2023/05/31 03:21:12;;;;;;;11.05;6.78;;;10.20;99.90;;;;;;5034769;28;20037;-68
2023/05/31 03:23:38;;;;;;;18.13;8.10;;;;;;;;;;5051809;28;20037;-69
2023/05/31 03:26:04;;;;;;;13.75;7.30;;;;;;;;;;5034319;28;20043;-68
2023/05/31 03:28:30;;;;;;;14.30;7.32;;;10.40;99.90;;;;;;5034176;28;20128;-68
2023/05/31 03:30:55;;;;;;;14.38;7.40;;;10.00;99.90;;;;;;5034404;28;20041;-68
2023/05/31 03:33:22;;;;;;;13.45;6.85;;;;;;;;;;5051752;28;20045;-68
2023/05/31 03:35:48;;;;;;;19.67;7.70;;;;;;;;;;5052162;28;20137;-68
2023/05/31 03:38:14;;;;;;;16.02;7.10;;;;;;;;;;5033951;28;20052;-68
2023/05/31 03:40:40;;;;;;;17.33;6.57;;;;;;;;;;5017671;28;20041;-67
2023/05/31 03:43:06;;;;;;;15.73;7.40;;;10.30;99.90;;;;;;5033895;28;20094;-67
2023/05/31 03:45:31;;;;;;;17.63;6.78;;;10.20;99.90;;;;;;5034103;28;20513;-67
2023/05/31 03:47:57;;;;;;;13.88;7.53;;;10.30;99.90;;;;;;5034140;28;20127;-67
2023/05/31 03:50:23;;;;;;;16.70;7.85;;;;;;;;;;5034020;28;20048;-67
2023/05/31 03:52:48;;;;;;;15.98;8.18;;;10.20;99.90;;;;;;5051572;28;20037;-67
2023/05/31 03:55:14;;;;;;;17.65;8.23;;;10.30;99.90;;;;;;5051292;28;20048;-67
2023/05/31 03:57:40;;;;;;;14.48;8.20;;;10.20;99.90;;;;;;5033331;28;20059;-67
2023/05/31 04:00:06;;;;;;;17.77;7.85;;;10.30;99.90;;;;;;5051581;28;20094;-67
2023/05/31 04:02:32;;;;;;;17.30;6.82;;;10.20;99.90;;;;;;5033839;28;20047;-67
2023/05/31 04:04:58;;;;;;;12.38;7.18;;;;;;;;;;5051377;28;20120;-67
2023/05/31 04:07:24;;;;;;;16.35;7.78;;;;;;;;;;5033610;28;20087;-67
2023/05/31 04:09:50;;;;;;;18.23;8.13;;;;;;;;;;5033604;28;20048;-67
2023/05/31 04:12:16;;;;;;;17.23;7.90;;;;;;;;;;5051394;28;20389;-67
2023/05/31 04:14:42;;;;;;;18.73;7.38;;;;;;;;;;5051250;28;20036;-67
2023/05/31 04:17:08;;;;;;;13.90;8.43;;;10.40;99.90;;;;;;5033534;28;20037;-66
2023/05/31 04:19:33;;;;;;;20.73;8.05;;;10.40;99.90;;;;;;5033651;28;20053;-66
2023/05/31 04:21:59;;;;;;;24.33;8.90;;;10.70;99.90;;;;;;5051507;28;20044;-65
2023/05/31 04:24:25;;;;;;;17.05;8.77;;;;;;;;;;5050801;28;20029;-67
2023/05/31 04:26:51;;;;;;;21.92;8.10;;;;;;;;;;5033338;28;20033;-67
2023/05/31 04:29:17;;;;;;;13.65;7.65;;;10.60;99.90;;;;;;5033635;28;20037;-67
2023/05/31 04:31:43;;;;;;;16.27;7.15;;;;;;;;;;5033514;28;20050;-67
2023/05/31 04:34:10;;;;;;;15.73;8.00;;;;;;;;;;5032839;28;20045;-66
2023/05/31 04:36:38;;;;;;;20.10;9.10;;;10.80;99.90;;;;;;5051035;28;20045;-66
2023/05/31 04:39:09;;;;;;;16.10;7.78;;;10.90;99.90;;;;;;5051141;28;20120;-67
2023/05/31 04:41:34;;;;;;;16.63;8.10;;;11.10;99.90;;;;;;5033519;28;20072;-67
2023/05/31 04:44:00;;;;;;;25.00;9.13;;;11.00;99.90;;;;;;5050542;28;20069;-66
2023/05/31 04:46:27;;;;;;;17.63;7.88;;;11.10;99.90;;;;;;5033225;28;20045;-67
2023/05/31 04:48:52;;;;;;;18.20;7.43;;;11.40;99.90;;;;;;5041380;28;20386;-66
2023/05/31 04:51:18;;;;;;;14.60;7.45;;;;;;;;;;5031458;28;20076;-67
2023/05/31 04:53:45;;;;;;;19.02;7.72;;;11.20;99.90;;;;;;5039024;28;20046;-66
2023/05/31 04:56:12;;;;;;;21.55;8.45;;;11.70;99.90;;;;;;5041441;28;20039;-67
2023/05/31 04:58:38;;;;;;;18.25;8.07;;;;;;;;;;5031250;28;20041;-67
2023/05/31 05:01:04;;;;;;;12.10;7.05;;;;;;;;;;5030271;28;20068;-67
2023/05/31 05:03:31;;;;;;;18.33;7.80;;;;;;;;;;5031353;28;20045;-67
2023/05/31 05:05:57;;;;;;;18.95;7.65;;;;;;;;;;5031466;28;20041;-67
2023/05/31 05:08:23;;;;;;;14.80;8.30;;;;;;;;;;5029769;28;20086;-67
2023/05/31 05:10:49;;;;;;;16.80;6.78;;;11.90;99.90;;;;;;5033534;28;20053;-67
2023/05/31 05:13:16;;;;;;;19.15;7.20;;;12.00;99.90;;;;;;5034370;28;20045;-67
2023/05/31 05:15:41;;;;;;;26.05;9.18;;;12.00;99.90;;;;;;5034937;28;20120;-67
2023/05/31 05:18:07;;;;;;;15.50;7.85;;;;;;;;;;5034315;28;20129;-67
2023/05/31 05:20:33;;;;;;;17.83;7.72;;;;;;;;;;5016727;28;20044;-67
2023/05/31 05:23:06;;;;;;;17.10;7.95;;;;;;;;;;5033089;28;20048;-66
2023/05/31 05:25:32;;;;;;;19.38;7.93;;;;;;;;;;5031943;28;20046;-65
2023/05/31 05:27:58;;;;;;;17.48;8.10;;;;;;;;;;5046751;28;20041;-66
2023/05/31 05:30:25;;;;;;;18.10;8.05;;;;;;;;;;5049849;28;20041;-66
2023/05/31 05:32:51;;;;;;;17.15;7.93;;;;;;;;;;5019697;28;20060;-66
2023/05/31 05:35:17;;;;;;;13.40;7.15;;;12.90;99.90;;;;;;5015120;28;20037;-66
2023/05/31 05:37:42;;;;;;;15.65;7.68;;;12.90;99.90;;;;;;5043346;28;20509;-66
2023/05/31 05:40:09;;;;;;;22.85;7.75;;;;;;;;;;5019526;28;20483;-66
2023/05/31 05:42:36;;;;;;;15.40;8.25;;;;;;;;;;5049668;28;20047;-66
2023/05/31 05:45:07;;;;;;;19.70;8.43;;;13.20;99.90;;;;;;5024512;28;20083;-66
2023/05/31 05:47:33;;;;;;;16.50;8.07;;;;;;;;;;5003778;28;20041;-66
2023/05/31 05:49:59;;;;;;;19.77;7.70;;;;;;;;;;5020752;28;20037;-67
2023/05/31 05:52:25;;;;;;;17.48;8.50;;;13.40;99.90;;;;;;5020318;28;20634;-66
2023/05/31 05:54:51;;;;;;;21.52;8.75;;;;;;;;;;5025900;28;20037;-66
2023/05/31 05:57:18;;;;;;;24.45;7.35;;;;;;;;;;5042108;28;20033;-65
2023/05/31 05:59:44;;;;;;;18.00;7.93;;;13.50;99.90;;;;;;5018391;28;20045;-67
2023/05/31 06:02:11;;;;;;;19.90;7.60;;;;;;;;;;5015371;28;20535;-67
2023/05/31 06:04:37;;;;;;;19.30;7.68;;;;;;;;;;5012022;28;20447;-66
2023/05/31 06:07:03;;;;;;;24.95;8.10;;;14.10;99.90;;;;;;5015824;28;20060;-67
2023/05/31 06:09:28;;;;;;;16.23;7.65;;;14.20;99.90;;;;;;5031195;28;20393;-66
2023/05/31 06:11:54;;;;;;;13.55;7.28;;;;;;;;;;5014713;28;20052;-67
2023/05/31 06:14:20;;;;;;;16.85;6.90;;;;;;;;;;5030195;28;20126;-67
2023/05/31 06:16:47;;;;;;;12.45;7.30;;;;;;;;;;5021911;28;20044;-66
2023/05/31 06:19:12;;;;;;;15.65;7.70;;;14.30;99.90;;;;;;5029778;28;20040;-66
2023/05/31 06:21:38;;;;;;;16.33;8.02;;;;;;;;;;5049649;28;20524;-66
2023/05/31 06:24:04;;;;;;;16.30;8.18;;;14.30;99.90;;;;;;5030782;28;20084;-67
2023/05/31 06:26:30;;;;;;;15.30;7.75;;;14.60;99.90;;;;;;5030802;28;20566;-66
2023/05/31 06:28:59;;;;;;;17.45;7.85;;;14.70;99.90;;;;;;5024465;28;20047;-67
2023/05/31 06:31:26;;;;;;;16.65;8.27;;;14.60;99.90;;;;;;5014459;28;20052;-67
2023/05/31 06:33:51;;;;;;;15.85;7.38;;;14.80;99.90;;;;;;5014937;28;20132;-67
2023/05/31 06:36:17;;;;;;;13.00;8.18;;;15.00;99.90;;;;;;5015716;28;20581;-66
2023/05/31 06:38:43;;;;;;;15.45;7.15;;;14.90;99.90;;;;;;5015236;28;20037;-67
2023/05/31 06:41:09;;;;;;;13.77;7.07;;;15.20;99.90;;;;;;5033314;28;20489;-67
2023/05/31 06:43:35;;;;;;;14.38;7.00;;;;;;;;;;5014725;28;20042;-71
2023/05/31 06:46:01;;;;;;;11.88;6.15;;;15.50;99.90;;;;;;5015314;28;20095;-69
2023/05/31 06:48:27;;;;;;;18.30;7.25;;;15.50;99.90;;;;;;5015298;28;20076;-68
2023/05/31 06:50:52;;;;;;;13.18;6.68;;;15.50;99.90;;;;;;4999030;28;20041;-68
2023/05/31 06:53:18;;;;;;;8.93;5.10;;;;;;;;;;5032545;28;20041;-70
2023/05/31 06:55:44;;;;;;;15.52;6.03;;;15.80;99.90;;;;;;5015512;28;20048;-70
2023/05/31 06:58:10;;;;;;;14.65;6.15;;;15.60;99.90;;;;;;5032814;28;20048;-70
2023/05/31 07:00:35;;;;;;;14.50;6.75;;;15.80;99.90;;;;;;5015348;28;20120;-69
2023/05/31 07:03:01;;;;;;;12.68;5.85;;;16.00;99.90;;;;;;5014679;28;20041;-69
2023/05/31 07:05:28;;;;;;;13.10;5.55;;;16.00;99.90;;;;;;5015360;28;20037;-70
2023/05/31 07:07:54;;;;;;;11.98;6.15;;;;;;;;;;5014783;28;20049;-68
2023/05/31 07:10:19;;;;;;;12.25;5.82;;;16.30;99.90;;;;;;5014931;28;20184;-68
2023/05/31 07:12:45;;;;;;;17.48;5.43;;;16.70;99.90;;;;;;4998470;28;20045;-68
2023/05/31 07:15:11;;;;;;;12.98;5.35;;;16.50;99.90;;;;;;4998026;28;20044;-69
2023/05/31 07:17:37;;;;;;;13.48;5.88;;;;;;;;;;5014562;28;20499;-68
2023/05/31 07:20:05;;;;;;;11.77;5.53;;;;;;;;;;5014772;28;20041;-68
2023/05/31 07:22:30;;;;;;;16.65;5.93;;;16.70;99.90;;;;;;5014820;28;20037;-68
2023/05/31 07:24:57;;;;;;;9.93;4.32;;;17.00;99.90;;;;;;4998115;28;20496;-69
2023/05/31 07:27:23;;;;;;;13.50;4.60;;;;;;;;;;5014516;28;20038;-69
2023/05/31 07:29:48;;;;;;;8.15;4.68;;;16.90;99.90;;;;;;4998194;28;20129;-69
2023/05/31 07:32:14;;;;;;;10.65;5.22;;;16.80;99.90;;;;;;5031310;28;20120;-69
2023/05/31 07:34:40;;;;;;;7.15;4.45;;;;;;;;;;5014251;28;20045;-69
2023/05/31 07:37:06;;;;;;;10.55;4.90;;;17.30;99.90;;;;;;5014634;28;20487;-69
2023/05/31 07:39:32;;;;;;;7.95;4.13;;;;;;;;;;5014423;28;20124;-69
2023/05/31 07:41:58;;;;;;;10.30;4.38;;;17.40;99.90;;;;;;5032179;28;20119;-69
2023/05/31 07:44:25;;;;;;;9.27;6.13;;;;;;;;;;5013719;28;20128;-69
2023/05/31 07:46:50;;;;;;;10.52;4.60;;;17.60;99.90;;;;;;5032006;28;20045;-69
2023/05/31 07:49:17;;;;;;;10.27;5.13;;;;;;;;;;5032031;28;20047;-69
2023/05/31 07:51:43;;;;;;;7.85;3.88;;;17.50;99.90;;;;;;5014164;28;20049;-69
2023/05/31 07:54:08;;;;;;;11.80;4.50;;;17.50;99.90;;;;;;5031437;28;20033;-69
2023/05/31 07:56:34;;;;;;;6.18;3.42;;;17.70;99.90;;;;;;5014181;28;20106;-68
2023/05/31 07:58:59;;;;;;;9.70;3.70;;;17.80;99.90;;;;;;5031689;28;20425;-70
2023/05/31 08:01:26;;;;;;;9.18;3.80;;;17.90;99.90;;;;;;4997728;28;20492;-69
2023/05/31 08:03:54;;;;;;;6.35;3.10;;;18.00;99.90;;;;;;5031233;28;20496;-69
2023/05/31 08:06:20;;;;;;;10.38;3.65;;;18.00;99.90;;;;;;5014308;28;20037;-69
2023/05/31 08:08:46;;;;;;;12.55;4.40;;;18.00;99.90;;;;;;5031622;28;20537;-69
2023/05/31 08:11:12;;;;;;;12.02;2.83;;;17.90;99.90;;;;;;5031797;28;20075;-68
2023/05/31 08:13:38;;;;;;;6.80;2.63;;;17.90;99.90;;;;;;4997200;28;20409;-69
2023/05/31 08:16:04;;;;;;;6.45;2.65;;;17.90;99.90;;;;;;5013920;28;20061;-69
2023/05/31 08:18:30;;;;;;;5.13;2.83;;;18.20;99.90;;;;;;5013667;28;20045;-69
2023/05/31 08:20:56;;;;;;;9.75;3.45;;;18.10;99.90;;;;;;5014183;28;20508;-69
2023/05/31 08:23:22;;;;;;;6.85;4.10;;;18.30;99.90;;;;;;5013430;28;20091;-68
2023/05/31 08:25:48;;;;;;;10.35;3.25;;;;;;;;;;5013884;28;20056;-69
2023/05/31 08:28:14;;;;;;;9.15;3.55;;;17.90;99.90;;;;;;5013654;28;20065;-69
2023/05/31 08:30:40;;;;;;;7.32;3.20;;;;;;;;;;5031600;28;20505;-69
2023/05/31 08:33:06;;;;;;;7.50;3.42;;;18.60;99.90;;;;;;5013185;28;20100;-68
2023/05/31 08:35:31;;;;;;;13.55;3.40;;;18.60;99.90;;;;;;5031537;28;20389;-69
2023/05/31 08:37:57;;;;;;;9.70;3.67;;;18.70;99.90;;;;;;5013579;28;20045;-69
2023/05/31 08:40:23;;;;;;;9.35;3.35;;;18.30;99.90;;;;;;5013761;28;20076;-68
2023/05/31 08:43:00;;;;;;;9.93;4.72;;;18.30;99.90;;;;;;5014103;28;20501;-69
2023/05/31 08:45:29;;;;;;;6.53;3.80;;;18.60;99.90;;;;;;5017661;28;20033;-69
2023/05/31 08:48:14;;;;;;;11.63;3.83;;;18.60;99.90;;;;;;5035289;28;20033;-69
2023/05/31 08:50:42;;;;;;;13.57;3.90;;;19.10;99.90;;;;;;5017568;28;20068;-68
2023/05/31 08:53:09;;;;;;;6.70;3.40;;;18.80;99.90;;;;;;5016830;28;20045;-69
2023/05/31 08:55:36;;;;;;;7.10;3.70;;;19.10;99.90;;;;;;5017531;28;20116;-69
2023/05/31 08:58:02;;;;;;;9.60;3.63;;;18.70;99.90;;;;;;5034983;28;20049;-69
2023/05/31 09:00:29;;;;;;;6.40;4.00;;;19.00;99.90;;;;;;5017329;28;20056;-68
2023/05/31 09:02:56;;;;;;;9.25;3.80;;;18.30;99.90;;;;;;5035022;28;20497;-69
2023/05/31 09:05:21;;;;;;;11.15;3.80;;;17.90;99.90;;;;;;5017201;28;20040;-69
2023/05/31 09:07:49;;;;;;;10.63;3.88;;;18.40;99.90;;;;;;5017272;28;20489;-69
2023/05/31 09:10:15;;;;;;;8.32;3.65;;;18.80;99.90;;;;;;5017481;28;20575;-69
2023/05/31 09:12:42;;;;;;;11.90;4.20;;;18.50;99.90;;;;;;5034751;28;20038;-69
2023/05/31 09:15:08;;;;;;;12.57;4.13;;;18.10;99.90;;;;;;5016969;28;20038;-69
2023/05/31 09:17:34;;;;;;;10.13;4.32;;;18.40;99.90;;;;;;5034645;28;20116;-69
2023/05/31 09:20:00;;;;;;;14.57;4.63;;;18.60;99.90;;;;;;5016883;28;20125;-70
2023/05/31 09:22:26;;;;;;;20.30;4.22;;;18.90;99.90;;;;;;5016714;28;20042;-69
2023/05/31 09:24:57;;;;;;;10.93;3.65;;;18.60;99.90;;;;;;5016647;28;20030;-70
2023/05/31 09:27:23;;;;;;;9.82;3.60;;;18.80;99.90;;;;;;5016743;28;20041;-69
2023/05/31 09:29:56;;;;;;;16.63;4.85;;;19.20;99.90;;;;;;5017073;28;20037;-70
2023/05/31 09:32:22;;;;;;;10.02;3.83;;;19.10;99.90;;;;;;5000689;28;20041;-69
2023/05/31 09:34:47;;;;;;;10.95;4.18;;;18.90;99.90;;;;;;5016224;28;20508;-70
2023/05/31 09:37:24;;;;;;;15.75;5.43;;;19.00;99.90;;;;;;5016611;28;20131;-69
2023/05/31 09:39:54;;;;;;;8.98;4.15;;;19.70;99.90;;;;;;5034616;28;20053;-70
2023/05/31 09:42:20;;;;;;;10.90;4.53;;;18.20;99.90;;;;;;5018802;28;20519;-69
2023/05/31 09:44:49;;;;;;;12.65;4.50;;;18.50;99.90;;;;;;5035941;28;20041;-70
2023/05/31 09:47:15;;;;;;;9.75;4.43;;;18.10;99.90;;;;;;5052716;28;20068;-69
2023/05/31 09:49:43;;;;;;;8.70;4.18;;;18.90;99.90;;;;;;5038992;28;20553;-69
2023/05/31 09:52:13;;;;;;;12.82;4.32;;;18.90;99.90;;;;;;5035762;28;20080;-69
2023/05/31 09:54:39;;;;;;;12.32;5.03;;;18.70;99.90;;;;;;5052589;28;20086;-70
2023/05/31 09:57:05;;;;;;;8.73;3.83;;;19.00;99.90;;;;;;5019268;28;20033;-69
2023/05/31 09:59:34;;;;;;;14.35;4.40;;;19.20;99.90;;;;;;5035811;28;20527;-70
2023/05/31 10:02:02;;;;;;;8.73;4.07;;;18.80;99.90;;;;;;5035578;28;20040;-70
2023/05/31 10:04:29;;;;;;;11.05;4.32;;;19.40;99.90;;;;;;5035370;28;20040;-69
2023/05/31 10:06:55;;;;;;;9.55;4.00;;;19.20;99.90;;;;;;5035691;28;20516;-70
2023/05/31 10:09:21;;;;;;;12.15;5.25;;;19.00;99.90;;;;;;5035825;28;20037;-70
2023/05/31 10:11:53;;;;;;;12.27;4.35;;;19.30;99.90;;;;;;5053561;28;20044;-70
2023/05/31 10:14:28;;;;;;;14.33;5.00;;;19.60;99.90;;;;;;5035323;28;20044;-69
2023/05/31 10:17:02;;;;;;;11.40;5.38;;;18.90;99.90;;;;;;5035491;28;20033;-69
2023/05/31 10:19:35;;;;;;;9.30;5.00;;;19.60;99.90;;;;;;5035767;28;20045;-70
2023/05/31 10:22:03;;;;;;;9.95;4.50;;;18.90;99.90;;;;;;5035823;28;20044;-70
2023/05/31 10:24:44;;;;;;;12.60;5.72;;;19.10;99.90;;;;;;5035586;28;20048;-70
2023/05/31 10:27:32;;;;;;;9.82;4.75;;;19.10;99.90;;;;;;5035627;28;20094;-70
2023/05/31 10:30:04;;;;;;;9.93;4.72;;;19.70;99.90;;;;;;5035482;28;20047;-70
2023/05/31 10:32:33;;;;;;;13.35;5.28;;;19.00;99.90;;;;;;5035622;28;20127;-69
2023/05/31 10:34:59;;;;;;;7.78;5.00;;;18.80;99.90;;;;;;5035237;28;20037;-69
2023/05/31 10:37:25;;;;;;;9.98;4.75;;;19.20;99.90;;;;;;5034982;28;20044;-69
2023/05/31 10:40:30;;;;;;;9.68;5.05;;;20.00;99.90;;;;;;5035009;28;20049;-69
2023/05/31 10:43:32;;;;;;;10.00;5.28;;;18.80;99.90;;;;;;5035255;28;20124;-70
2023/05/31 10:46:13;;;;;;;10.98;5.50;;;18.50;99.90;;;;;;5035214;28;20053;-70
2023/05/31 10:48:58;;;;;;;9.90;5.05;;;18.70;99.90;;;;;;5034947;28;20128;-70
2023/05/31 10:51:41;;;;;;;14.05;6.10;;;19.70;99.90;;;;;;5035081;28;20036;-69
2023/05/31 10:54:07;;;;;;;10.43;5.55;;;19.10;99.90;;;;;;5017819;28;20041;-70
2023/05/31 10:56:36;;;;;;;11.02;5.88;;;19.40;99.90;;;;;;5034847;28;20072;-69
2023/05/31 10:59:03;;;;;;;7.43;5.03;;;19.20;99.90;;;;;;5035024;28;20049;-69
2023/05/31 11:01:30;;;;;;;11.75;4.95;;;19.30;99.90;;;;;;5035138;28;20489;-70
2023/05/31 11:03:57;;;;;;;10.20;4.63;;;19.40;99.90;;;;;;5034219;28;20044;-70
2023/05/31 11:06:28;;;;;;;9.80;5.43;;;19.20;99.90;;;;;;5018006;28;20175;-69
2023/05/31 11:08:58;;;;;;;11.93;5.03;;;19.30;99.90;;;;;;5034442;28;20056;-70
2023/05/31 11:11:28;;;;;;;11.20;5.45;;;18.90;99.90;;;;;;5034654;28;20044;-69
2023/05/31 11:14:06;;;;;;;13.07;5.35;;;19.50;99.90;;;;;;5051934;28;20330;-69
2023/05/31 11:17:06;;;;;;;11.32;6.03;;;19.10;99.90;;;;;;5034525;28;20051;-68
2023/05/31 11:19:35;;;;;;;15.38;5.90;;;19.60;99.90;;;;;;5026618;28;20053;-69
2023/05/31 11:22:07;;;;;;;10.77;6.05;;;19.40;99.90;;;;;;5034562;28;20500;-69
2023/05/31 11:24:36;;;;;;;8.98;5.55;;;19.60;99.90;;;;;;5034138;28;20044;-69
2023/05/31 11:27:03;;;;;;;7.57;4.32;;;19.50;99.90;;;;;;5034070;28;20068;-69
2023/05/31 11:29:52;;;;;;;11.90;5.10;;;19.90;99.90;;;;;;5034072;28;20200;-69
2023/05/31 11:32:38;;;;;;;13.90;5.75;;;19.80;99.90;;;;;;5021119;28;20064;-70
2023/05/31 11:35:06;;;;;;;12.70;4.53;;;19.80;99.90;;;;;;5016755;28;20132;-69
2023/05/31 11:37:37;;;;;;;9.35;4.22;;;19.80;99.90;;;;;;5034163;28;20040;-70
2023/05/31 11:40:11;;;;;;;7.25;5.00;;;20.30;99.90;;;;;;5017675;28;20381;-70
2023/05/31 11:42:42;;;;;;;9.82;4.88;;;20.30;99.90;;;;;;5033874;28;20048;-70
2023/05/31 11:45:09;;;;;;;11.52;4.75;;;19.60;99.90;;;;;;5033627;28;20040;-70
2023/05/31 11:47:44;;;;;;;10.30;5.20;;;19.60;99.90;;;;;;5033936;28;20032;-70
2023/05/31 11:50:17;;;;;;;10.48;5.85;;;21.20;99.90;;;;;;5034321;28;20063;-69
2023/05/31 11:52:42;;;;;;;;;;;19.30;99.90;;;;;;5034109;28;20041;-69
2023/05/31 11:55:09;;;;;;;12.57;5.45;;;19.60;99.90;;;;;;5033939;28;20046;-69
2023/05/31 11:57:45;;;;;;;12.75;6.40;;;19.20;99.90;;;;;;5051464;28;20105;-70
2023/05/31 12:00:14;;;;;;;11.38;6.43;;;19.20;99.90;;;;;;5033882;28;20171;-70
2023/05/31 12:02:41;;;;;;;13.88;5.93;;;18.90;99.90;;;;;;5033594;28;20093;-69
2023/05/31 12:05:16;;;;;;;14.15;5.90;;;18.80;99.90;;;;;;5033627;28;20400;-69
2023/05/31 12:07:43;;;;;;;12.55;4.72;;;19.50;99.90;;;;;;5033492;28;20116;-68
2023/05/31 12:10:09;;;;;;;16.63;5.20;;;19.70;99.90;;;;;;5051478;28;20384;-69
2023/05/31 12:12:35;;;;;;;8.45;4.40;;;19.90;99.90;;;;;;5051414;28;20051;-69
2023/05/31 12:15:02;;;;;;;12.52;5.35;;;20.00;99.90;;;;;;5033105;28;20496;-69
2023/05/31 12:17:31;;;;;;;10.38;4.68;;;20.10;99.90;;;;;;5050627;28;20095;-69
2023/05/31 12:19:57;;;;;;;10.88;4.78;;;20.00;99.90;;;;;;5016979;28;20048;-69
2023/05/31 12:22:23;;;;;;;12.85;5.53;;;19.70;99.90;;;;;;5033420;28;20549;-69
2023/05/31 12:24:54;;;;;;;13.02;6.35;;;20.10;99.90;;;;;;5033109;28;20035;-69
2023/05/31 12:27:21;;;;;;;13.95;6.25;;;19.50;99.90;;;;;;5051229;28;20044;-68
2023/05/31 12:29:46;;;;;;;10.75;5.22;;;19.20;99.90;;;;;;5033447;28;20037;-69
2023/05/31 12:32:12;;;;;;;11.57;5.72;;;20.00;99.90;;;;;;5033314;28;20048;-69
2023/05/31 12:34:39;;;;;;;15.80;6.55;;;19.30;99.90;;;;;;5032989;28;20299;-68
2023/05/31 12:37:09;;;;;;;12.82;5.00;;;19.40;99.90;;;;;;5033080;28;20067;-69
2023/05/31 12:39:36;;;;;;;10.68;5.30;;;19.80;99.90;;;;;;5033336;28;20422;-69
2023/05/31 12:42:03;;;;;;;10.95;4.25;;;19.00;99.90;;;;;;5033106;28;20041;-68
2023/05/31 12:44:30;;;;;;;11.35;5.05;;;19.80;99.90;;;;;;5050371;28;20052;-69
2023/05/31 12:47:01;;;;;;;7.85;4.38;;;19.70;99.90;;;;;;5033560;28;20465;-69
2023/05/31 12:49:28;;;;;;;9.50;4.40;;;21.30;99.90;;;;;;5016738;28;20041;-69
2023/05/31 12:51:58;;;;;;;8.13;4.57;;;20.40;99.90;;;;;;5033079;28;20059;-69
2023/05/31 12:54:25;;;;;;;9.55;4.40;;;20.20;99.90;;;;;;5050633;28;20045;-69
2023/05/31 12:56:51;;;;;;;10.65;4.43;;;20.20;99.90;;;;;;5033088;28;20049;-69
2023/05/31 12:59:17;;;;;;;10.82;3.90;;;20.10;99.90;;;;;;5033254;28;20044;-69
2023/05/31 13:01:43;;;;;;;8.57;4.28;;;20.90;99.90;;;;;;5033079;28;20517;-69
2023/05/31 13:04:11;;;;;;;8.88;4.35;;;19.00;99.90;;;;;;5032854;28;20041;-69
2023/05/31 13:06:40;;;;;;;7.95;3.75;;;19.60;99.90;;;;;;5050763;28;20041;-67
2023/05/31 13:09:06;;;;;;;10.27;4.22;;;19.80;99.90;;;;;;5033003;28;20116;-68